Time;durP1;ratioP1;P1;durP2;ratioP2;P2;SDS_P1;SDS_P2;PMS_P1;PMS_P2;Temp;Humidity;BMP_temperature;BMP_pressure;BME280_temperature;BME280_humidity;BME280_pressure;Samples;Min_cycle;Max_cycle;Signal;HPM_P1;HPM_P2
2021/03/30 00:00:52;;;;;;;10.20;6.37;;;8.50;96.70;;;;;;5071522;28;20455;-45
2021/03/30 00:03:18;;;;;;;9.27;5.97;;;8.50;96.50;;;;;;5083843;28;20572;-46
2021/03/30 00:05:45;;;;;;;9.00;6.10;;;8.50;96.50;;;;;;5091443;28;20463;-46
2021/03/30 00:08:13;;;;;;;9.63;6.17;;;8.50;96.60;;;;;;5090660;28;20480;-45
2021/03/30 00:10:41;;;;;;;9.03;6.00;;;8.50;96.40;;;;;;5091733;28;20453;-46
2021/03/30 00:13:10;;;;;;;16.10;6.60;;;8.60;96.40;;;;;;5085097;28;20477;-46
2021/03/30 00:15:37;;;;;;;12.60;6.33;;;8.60;96.20;;;;;;5071187;28;21017;-46
2021/03/30 00:18:04;;;;;;;15.40;6.67;;;8.60;96.10;;;;;;5071358;28;20512;-46
2021/03/30 00:20:31;;;;;;;12.60;6.07;;;8.50;96.30;;;;;;5071295;28;20957;-46
2021/03/30 00:22:58;;;;;;;13.20;6.27;;;8.40;96.30;;;;;;5075529;28;21154;-45
2021/03/30 00:25:24;;;;;;;8.90;5.70;;;8.40;96.70;;;;;;5090378;28;20445;-45
2021/03/30 00:27:51;;;;;;;16.40;6.20;;;8.40;96.50;;;;;;5091365;28;20449;-45
2021/03/30 00:30:20;;;;;;;11.30;6.23;;;8.30;96.90;;;;;;5091255;28;20453;-46
2021/03/30 00:32:46;;;;;;;10.60;5.80;;;8.30;96.90;;;;;;5088488;28;20474;-46
2021/03/30 00:35:13;;;;;;;8.50;5.67;;;8.30;96.80;;;;;;5071081;28;20451;-46
2021/03/30 00:37:39;;;;;;;6.37;5.00;;;8.30;96.90;;;;;;5070953;28;20474;-45
2021/03/30 00:40:08;;;;;;;10.10;5.23;;;8.30;96.70;;;;;;5070876;28;20850;-46
2021/03/30 00:42:36;;;;;;;9.10;5.50;;;8.20;96.90;;;;;;5071061;28;20540;-46
2021/03/30 00:45:03;;;;;;;10.07;5.63;;;8.20;97.00;;;;;;5089965;28;20753;-46
2021/03/30 00:47:33;;;;;;;9.90;5.50;;;8.20;97.00;;;;;;5090980;28;20450;-46
2021/03/30 00:50:01;;;;;;;9.00;5.60;;;8.40;96.90;;;;;;5091300;28;20496;-45
2021/03/30 00:52:28;;;;;;;14.80;6.37;;;8.30;96.90;;;;;;5090931;28;20480;-46
2021/03/30 00:54:55;;;;;;;7.97;5.40;;;8.40;97.10;;;;;;5070908;28;20973;-46
2021/03/30 00:57:21;;;;;;;10.43;5.73;;;8.30;97.10;;;;;;5070905;28;20923;-46
2021/03/30 00:59:48;;;;;;;7.30;4.70;;;8.20;97.20;;;;;;5070777;28;20466;-46
2021/03/30 01:02:14;;;;;;;16.30;4.73;;;8.20;97.20;;;;;;5070529;28;20814;-46
2021/03/30 01:04:42;;;;;;;8.57;4.77;;;8.10;97.30;;;;;;5087879;28;20860;-45
2021/03/30 01:07:08;;;;;;;6.87;4.80;;;8.20;97.30;;;;;;5090777;28;20440;-46
2021/03/30 01:09:46;;;;;;;6.97;4.50;;;8.20;97.10;;;;;;5090665;28;20446;-46
2021/03/30 01:12:33;;;;;;;6.57;4.70;;;8.20;97.00;;;;;;5090243;28;20449;-45
2021/03/30 01:15:08;;;;;;;8.43;4.07;;;8.30;97.00;;;;;;5070673;28;20453;-46
2021/03/30 01:17:42;;;;;;;9.90;4.97;;;8.10;97.00;;;;;;5070357;28;21067;-46
2021/03/30 01:20:55;;;;;;;8.87;4.20;;;8.10;97.40;;;;;;5070528;28;20453;-46
2021/03/30 01:23:37;;;;;;;10.47;3.73;;;8.20;97.30;;;;;;5088346;28;20495;-45
2021/03/30 01:26:17;;;;;;;11.53;4.50;;;8.10;97.20;;;;;;5090534;28;20452;-46
2021/03/30 01:29:09;;;;;;;6.10;3.80;;;8.00;97.30;;;;;;5090626;28;20507;-46
2021/03/30 01:31:37;;;;;;;8.13;4.00;;;8.10;97.30;;;;;;5084808;28;20449;-46
2021/03/30 01:34:05;;;;;;;7.90;4.73;;;8.10;97.30;;;;;;5070349;28;21041;-45
2021/03/30 01:36:37;;;;;;;6.43;4.47;;;8.00;97.50;;;;;;5070114;28;20443;-45
2021/03/30 01:39:06;;;;;;;7.60;4.70;;;8.00;97.50;;;;;;5070244;28;20556;-46
2021/03/30 01:41:34;;;;;;;9.27;4.17;;;7.90;97.80;;;;;;5075444;28;20975;-45
2021/03/30 01:44:01;;;;;;;10.90;4.57;;;7.80;98.30;;;;;;5094526;28;20481;-46
2021/03/30 01:46:30;;;;;;;8.50;4.10;;;7.80;98.40;;;;;;5094335;28;20446;-46
2021/03/30 01:49:00;;;;;;;7.07;4.67;;;7.70;98.20;;;;;;5094494;28;20445;-45
2021/03/30 01:51:27;;;;;;;6.27;4.80;;;7.80;98.60;;;;;;5090028;28;20450;-46
2021/03/30 01:53:54;;;;;;;6.50;3.90;;;7.70;98.60;;;;;;5073894;28;20987;-45
2021/03/30 01:56:23;;;;;;;8.33;4.53;;;7.50;98.80;;;;;;5073970;28;20453;-46
2021/03/30 01:58:51;;;;;;;8.13;5.07;;;7.40;98.80;;;;;;5087511;28;20899;-46
2021/03/30 02:01:19;;;;;;;8.43;4.37;;;7.30;99.00;;;;;;5092152;28;20442;-46
2021/03/30 02:03:47;;;;;;;8.07;4.47;;;7.30;99.00;;;;;;5073656;28;20468;-46
2021/03/30 02:06:15;;;;;;;10.77;4.90;;;7.30;99.00;;;;;;5073566;28;20447;-45
2021/03/30 02:08:42;;;;;;;10.30;4.93;;;7.20;99.00;;;;;;5073915;28;20587;-46
2021/03/30 02:11:09;;;;;;;6.67;4.83;;;7.30;99.00;;;;;;5074072;28;20452;-46
2021/03/30 02:13:41;;;;;;;6.70;4.63;;;7.40;99.20;;;;;;5073470;28;20477;-46
2021/03/30 02:16:12;;;;;;;8.27;4.93;;;7.30;99.10;;;;;;5073598;28;20514;-46
2021/03/30 02:18:44;;;;;;;8.97;4.73;;;7.30;99.30;;;;;;5073763;28;20485;-45
2021/03/30 02:21:17;;;;;;;11.23;5.00;;;7.20;99.40;;;;;;5073722;28;20446;-45
2021/03/30 02:23:44;;;;;;;7.10;4.70;;;7.00;99.80;;;;;;5087986;22;20503;-48
2021/03/30 02:26:14;;;;;;;10.40;5.03;;;7.00;99.90;;;;;;5045587;28;20452;-48
2021/03/30 02:28:44;;;;;;;13.23;5.90;;;7.10;99.90;;;;;;5032624;28;20524;-48
2021/03/30 02:31:14;;;;;;;12.43;5.77;;;7.20;99.90;;;;;;5033649;28;20455;-48
2021/03/30 02:33:42;;;;;;;9.50;6.10;;;7.20;99.90;;;;;;5046421;28;20843;-48
2021/03/30 02:36:09;;;;;;;12.63;5.77;;;7.30;99.90;;;;;;5046265;28;20522;-50
2021/03/30 02:38:38;;;;;;;11.20;5.57;;;7.10;99.90;;;;;;5033360;28;20487;-48
2021/03/30 02:41:05;;;;;;;11.83;6.03;;;7.10;99.90;;;;;;5033635;28;20453;-49
2021/03/30 02:43:34;;;;;;;10.20;6.00;;;7.10;99.90;;;;;;5033133;28;20472;-49
2021/03/30 02:46:02;;;;;;;10.27;5.93;;;7.20;99.90;;;;;;5037503;28;20826;-48
2021/03/30 02:48:30;;;;;;;14.47;6.17;;;7.20;99.90;;;;;;5052961;28;20453;-48
2021/03/30 02:50:57;;;;;;;9.33;6.17;;;7.20;99.90;;;;;;5053132;28;20455;-49
2021/03/30 02:53:24;;;;;;;12.40;6.50;;;7.20;99.90;;;;;;5051756;28;20478;-49
2021/03/30 02:55:52;;;;;;;14.53;6.50;;;7.10;99.90;;;;;;5048864;28;20456;-49
2021/03/30 02:58:20;;;;;;;15.83;6.70;;;7.00;99.90;;;;;;5032870;28;20481;-48
2021/03/30 03:00:48;;;;;;;10.30;5.70;;;6.90;99.90;;;;;;5033357;28;20506;-49
2021/03/30 03:03:16;;;;;;;11.83;5.83;;;6.80;99.90;;;;;;5034541;28;20495;-48
2021/03/30 03:05:44;;;;;;;8.73;5.47;;;6.80;99.90;;;;;;5050608;28;20447;-49
2021/03/30 03:08:11;;;;;;;7.80;5.10;;;6.90;99.90;;;;;;5043730;28;20536;-48
2021/03/30 03:10:39;;;;;;;9.40;5.23;;;7.00;99.90;;;;;;5032979;28;20451;-49
2021/03/30 03:13:07;;;;;;;7.80;5.27;;;7.10;99.90;;;;;;5033160;28;20467;-48
2021/03/30 03:15:35;;;;;;;9.83;5.97;;;6.90;99.90;;;;;;5033922;28;20454;-49
2021/03/30 03:18:02;;;;;;;10.93;5.60;;;6.90;99.90;;;;;;5053709;28;20483;-49
2021/03/30 03:20:30;;;;;;;11.40;5.60;;;6.80;99.90;;;;;;5044425;28;20454;-49
2021/03/30 03:22:56;;;;;;;7.70;4.87;;;6.60;99.90;;;;;;5053884;28;20495;-49
2021/03/30 03:25:23;;;;;;;7.17;5.40;;;6.70;99.90;;;;;;5053673;28;20440;-49
2021/03/30 03:27:50;;;;;;;10.40;5.50;;;6.60;99.90;;;;;;5038213;28;21007;-49
2021/03/30 03:30:19;;;;;;;6.73;4.67;;;6.30;99.90;;;;;;5054086;28;20443;-49
2021/03/30 03:32:45;;;;;;;8.40;4.83;;;6.30;99.90;;;;;;5044240;28;20463;-49
2021/03/30 03:35:13;;;;;;;8.03;5.10;;;6.40;99.90;;;;;;5034989;28;20441;-48
2021/03/30 03:37:44;;;;;;;10.30;5.50;;;6.50;99.90;;;;;;5039275;28;20476;-48
2021/03/30 03:40:12;;;;;;;9.20;4.77;;;6.50;99.90;;;;;;5050391;28;20464;-49
2021/03/30 03:42:39;;;;;;;11.47;4.90;;;6.60;99.90;;;;;;5053617;28;20477;-49
2021/03/30 03:45:09;;;;;;;9.13;5.23;;;6.70;99.90;;;;;;5052321;28;20436;-48
2021/03/30 03:47:37;;;;;;;7.63;5.07;;;6.30;99.90;;;;;;5034887;28;20820;-48
2021/03/30 03:50:04;;;;;;;8.20;5.17;;;6.40;99.90;;;;;;5039014;28;20813;-48
2021/03/30 03:52:36;;;;;;;8.80;5.27;;;6.40;99.90;;;;;;5050513;28;20479;-49
2021/03/30 03:55:04;;;;;;;8.73;5.43;;;6.50;99.90;;;;;;5050736;28;20447;-48
2021/03/30 03:57:38;;;;;;;8.00;5.27;;;6.50;99.90;;;;;;5044270;28;20476;-49
2021/03/30 04:00:06;;;;;;;6.97;4.83;;;6.50;99.90;;;;;;5050624;28;20439;-48
2021/03/30 04:02:40;;;;;;;8.47;5.40;;;6.40;99.90;;;;;;5050553;28;20458;-48
2021/03/30 04:05:11;;;;;;;7.50;4.80;;;6.50;99.90;;;;;;5031238;28;20444;-49
2021/03/30 04:07:46;;;;;;;8.40;5.57;;;6.50;99.90;;;;;;5042305;28;20451;-49
2021/03/30 04:10:16;;;;;;;6.30;4.97;;;6.40;99.90;;;;;;5033172;28;20447;-47
2021/03/30 04:12:44;;;;;;;7.77;4.90;;;6.20;99.90;;;;;;5033243;28;20460;-49
2021/03/30 04:15:11;;;;;;;8.70;5.23;;;6.00;99.90;;;;;;5033452;28;20452;-48
2021/03/30 04:17:40;;;;;;;11.73;5.37;;;5.90;99.90;;;;;;5030985;28;20476;-49
2021/03/30 04:20:09;;;;;;;8.80;5.20;;;5.80;99.90;;;;;;5031179;28;20449;-48
2021/03/30 04:22:36;;;;;;;11.67;5.80;;;5.70;99.90;;;;;;5030809;28;20479;-48
2021/03/30 04:25:04;;;;;;;13.03;5.50;;;5.70;99.90;;;;;;5030511;28;20828;-49
2021/03/30 04:27:31;;;;;;;8.07;5.23;;;5.80;99.90;;;;;;5034374;28;20452;-48
2021/03/30 04:29:58;;;;;;;12.23;5.90;;;5.90;99.90;;;;;;5030686;28;20506;-48
2021/03/30 04:32:24;;;;;;;8.60;4.67;;;6.00;99.90;;;;;;5030865;28;20472;-48
2021/03/30 04:34:52;;;;;;;12.47;6.37;;;6.00;99.90;;;;;;5030578;28;21342;-48
2021/03/30 04:37:19;;;;;;;8.80;4.93;;;5.90;99.90;;;;;;5042694;28;20901;-47
2021/03/30 04:39:45;;;;;;;9.70;5.33;;;5.70;99.90;;;;;;5045788;28;20957;-49
2021/03/30 04:42:12;;;;;;;8.87;4.93;;;5.80;99.90;;;;;;5048830;28;20863;-48
2021/03/30 04:44:39;;;;;;;13.70;5.60;;;5.90;99.90;;;;;;5048803;28;20501;-48
2021/03/30 04:47:06;;;;;;;10.87;4.93;;;6.00;99.90;;;;;;5040481;28;20449;-48
2021/03/30 04:49:34;;;;;;;10.50;5.50;;;5.90;99.90;;;;;;5030274;28;20447;-49
2021/03/30 04:52:02;;;;;;;10.90;5.37;;;5.80;99.90;;;;;;5036823;28;20440;-48
2021/03/30 04:54:28;;;;;;;7.07;4.63;;;5.90;99.90;;;;;;5048791;28;20524;-49
2021/03/30 04:56:55;;;;;;;10.83;4.87;;;6.00;99.90;;;;;;5043777;28;20448;-49
2021/03/30 04:59:22;;;;;;;8.47;5.60;;;6.00;99.90;;;;;;5044838;28;20487;-47
2021/03/30 05:01:48;;;;;;;10.63;5.53;;;6.00;99.90;;;;;;5040717;28;20448;-47
2021/03/30 05:04:16;;;;;;;12.00;5.80;;;5.70;99.90;;;;;;5045846;28;20488;-48
2021/03/30 05:06:43;;;;;;;11.67;6.23;;;5.40;99.90;;;;;;5035974;28;20509;-48
2021/03/30 05:09:10;;;;;;;8.07;5.73;;;5.50;99.90;;;;;;5033546;28;20454;-47
2021/03/30 05:11:37;;;;;;;11.90;6.33;;;5.70;99.90;;;;;;5032396;28;20504;-48
2021/03/30 05:14:03;;;;;;;11.33;6.00;;;5.90;99.90;;;;;;5033572;28;20521;-49
2021/03/30 05:16:30;;;;;;;9.80;6.83;;;6.00;99.90;;;;;;5040810;28;20455;-49
2021/03/30 05:18:59;;;;;;;13.37;6.90;;;6.00;99.90;;;;;;5048250;28;20476;-48
2021/03/30 05:21:25;;;;;;;13.77;6.83;;;6.10;99.90;;;;;;5044798;28;20544;-48
2021/03/30 05:23:52;;;;;;;14.20;6.50;;;6.10;99.90;;;;;;5038292;28;20480;-49
2021/03/30 05:26:19;;;;;;;12.73;6.80;;;6.10;99.90;;;;;;5037201;28;20448;-50
2021/03/30 05:28:46;;;;;;;15.60;7.47;;;6.10;99.90;;;;;;5050122;28;20441;-48
2021/03/30 05:31:12;;;;;;;12.87;6.43;;;6.00;99.90;;;;;;5035906;28;20469;-49
2021/03/30 05:33:39;;;;;;;12.97;7.80;;;5.90;99.90;;;;;;5034355;28;20486;-49
2021/03/30 05:36:06;;;;;;;14.93;7.03;;;6.00;99.90;;;;;;5031000;28;20504;-49
2021/03/30 05:38:32;;;;;;;13.47;7.20;;;6.10;99.90;;;;;;5035622;28;20484;-48
2021/03/30 05:41:03;;;;;;;12.93;6.33;;;5.90;99.90;;;;;;5036446;28;20453;-49
2021/03/30 05:43:30;;;;;;;9.60;6.50;;;5.70;99.90;;;;;;5037958;28;20467;-49
2021/03/30 05:45:59;;;;;;;10.47;5.87;;;5.90;99.90;;;;;;5048456;28;20456;-48
2021/03/30 05:48:26;;;;;;;11.07;6.40;;;5.90;99.90;;;;;;5048282;28;20440;-48
2021/03/30 05:50:52;;;;;;;12.70;6.27;;;5.90;99.90;;;;;;5042725;28;20448;-49
2021/03/30 05:53:20;;;;;;;13.17;6.13;;;6.10;99.90;;;;;;5029537;28;20472;-48
2021/03/30 05:55:52;;;;;;;10.63;5.70;;;6.20;99.90;;;;;;5041035;28;20484;-49
2021/03/30 05:58:19;;;;;;;10.23;5.73;;;6.20;99.90;;;;;;5041857;28;20490;-49
2021/03/30 06:00:47;;;;;;;9.13;5.90;;;6.60;99.90;;;;;;5033643;28;20467;-48
2021/03/30 06:03:15;;;;;;;8.37;5.47;;;7.10;99.90;;;;;;5048003;28;20475;-49
2021/03/30 06:05:42;;;;;;;9.97;5.60;;;8.00;99.90;;;;;;5032206;28;20456;-49
2021/03/30 06:08:09;;;;;;;10.00;5.57;;;9.00;99.90;;;;;;5029414;28;20443;-49
2021/03/30 06:10:36;;;;;;;10.43;5.30;;;10.10;99.90;;;;;;5031529;28;20945;-49
2021/03/30 06:13:04;;;;;;;9.77;6.20;;;11.10;99.90;;;;;;5047933;28;20509;-49
2021/03/30 06:15:32;;;;;;;10.23;5.90;;;12.10;98.80;;;;;;5032190;28;20448;-50
2021/03/30 06:18:00;;;;;;;8.43;5.23;;;12.90;97.30;;;;;;5029487;28;20523;-51
2021/03/30 06:20:30;;;;;;;10.17;5.70;;;13.50;95.50;;;;;;5030376;28;20459;-50
2021/03/30 06:22:58;;;;;;;9.13;5.30;;;14.20;94.70;;;;;;5047803;28;21063;-49
2021/03/30 06:25:35;;;;;;;14.37;6.00;;;14.80;93.70;;;;;;5048075;28;20452;-49
2021/03/30 06:28:13;;;;;;;8.73;4.97;;;14.90;92.60;;;;;;5049543;28;20443;-49
2021/03/30 06:30:53;;;;;;;9.23;5.53;;;15.10;91.30;;;;;;5049916;28;20450;-50
2021/03/30 06:33:21;;;;;;;9.80;5.77;;;15.70;91.00;;;;;;5032792;28;20889;-50
2021/03/30 06:35:48;;;;;;;9.00;5.50;;;16.20;90.20;;;;;;5032727;28;20444;-51
2021/03/30 06:38:14;;;;;;;7.80;5.70;;;16.70;89.90;;;;;;5032685;28;20483;-51
2021/03/30 06:40:43;;;;;;;12.87;6.20;;;17.00;89.00;;;;;;5046761;28;20460;-51
2021/03/30 06:46:07;;;;;;;9.23;6.90;;;17.90;86.90;;;;;;5050888;28;20450;-50
2021/03/30 06:48:35;;;;;;;9.30;6.63;;;18.10;85.30;;;;;;5051733;28;20440;-51
2021/03/30 06:51:17;;;;;;;10.63;7.47;;;18.50;84.70;;;;;;5045992;28;20881;-51
2021/03/30 06:53:43;;;;;;;18.27;8.20;;;18.60;84.70;;;;;;5047724;28;20542;-51
2021/03/30 06:56:10;;;;;;;13.50;7.70;;;18.90;84.00;;;;;;5050915;28;20448;-51
2021/03/30 06:58:55;;;;;;;18.20;8.67;;;19.20;84.20;;;;;;5050872;28;20483;-50
2021/03/30 07:01:22;;;;;;;11.43;7.80;;;19.40;83.90;;;;;;5044067;28;20457;-51
2021/03/30 07:03:49;;;;;;;10.80;7.80;;;19.70;81.30;;;;;;5032335;28;20457;-51
2021/03/30 07:06:16;;;;;;;11.87;7.40;;;19.70;80.90;;;;;;5031739;28;20483;-51
2021/03/30 07:08:44;;;;;;;12.93;8.40;;;19.80;81.30;;;;;;5032282;28;20436;-51
2021/03/30 07:11:11;;;;;;;15.40;8.60;;;20.10;81.30;;;;;;5050288;28;20439;-51
2021/03/30 07:13:38;;;;;;;11.43;7.37;;;20.30;78.80;;;;;;5050649;28;20571;-51
2021/03/30 07:16:09;;;;;;;10.20;6.93;;;20.30;78.60;;;;;;5051211;28;20448;-51
2021/03/30 07:18:41;;;;;;;13.70;7.67;;;20.30;80.30;;;;;;5048649;28;20479;-52
2021/03/30 07:21:12;;;;;;;12.10;6.70;;;20.30;77.40;;;;;;5052092;28;20456;-51
2021/03/30 07:23:43;;;;;;;12.73;7.10;;;20.60;76.10;;;;;;5048745;28;20475;-52
2021/03/30 07:26:11;;;;;;;14.57;7.03;;;20.90;75.10;;;;;;5048405;28;21154;-52
2021/03/30 07:28:45;;;;;;;13.73;7.20;;;21.10;75.70;;;;;;5043653;28;20503;-51
2021/03/30 07:31:16;;;;;;;9.17;5.90;;;21.00;74.90;;;;;;5044572;28;20448;-51
2021/03/30 07:33:49;;;;;;;13.80;6.40;;;20.70;75.20;;;;;;5033275;28;20468;-51
2021/03/30 07:36:19;;;;;;;19.03;5.93;;;21.10;73.40;;;;;;5037831;28;20448;-52
2021/03/30 07:38:49;;;;;;;9.93;7.00;;;21.30;73.40;;;;;;5051449;28;21067;-51
2021/03/30 07:41:19;;;;;;;12.83;6.10;;;20.30;72.50;;;;;;5052284;28;20489;-51
2021/03/30 07:43:48;;;;;;;11.10;6.57;;;20.20;71.90;;;;;;5040181;28;21020;-51
2021/03/30 07:46:14;;;;;;;7.80;6.07;;;20.70;72.40;;;;;;5036840;28;20961;-52
2021/03/30 07:48:41;;;;;;;10.23;6.00;;;21.20;70.60;;;;;;5051882;28;20455;-52
2021/03/30 07:51:10;;;;;;;10.53;5.60;;;21.60;71.30;;;;;;5051807;28;20505;-51
2021/03/30 07:53:39;;;;;;;7.90;4.60;;;21.80;69.40;;;;;;5051686;28;20471;-51
2021/03/30 07:56:06;;;;;;;9.67;4.30;;;21.60;68.10;;;;;;5047471;28;20449;-51
2021/03/30 07:58:41;;;;;;;6.37;3.30;;;22.10;65.10;;;;;;5032165;28;20480;-51
2021/03/30 08:01:09;;;;;;;4.53;3.83;;;21.50;62.60;;;;;;5032098;28;20471;-50
2021/03/30 08:03:36;;;;;;;6.77;4.73;;;20.30;65.30;;;;;;5041903;28;20472;-51
2021/03/30 08:06:16;;;;;;;7.17;4.20;;;20.80;68.60;;;;;;5039770;28;20847;-50
2021/03/30 08:08:49;;;;;;;7.85;4.20;;;21.40;67.00;;;;;;5042280;28;20523;-50
2021/03/30 08:11:16;;;;;;;6.53;3.80;;;21.60;64.40;;;;;;5042935;28;20663;-50
2021/03/30 08:13:49;;;;;;;5.47;3.30;;;22.00;64.20;;;;;;5040659;28;20922;-50
2021/03/30 08:16:18;;;;;;;5.37;3.17;;;21.90;62.80;;;;;;5040758;28;20565;-52
2021/03/30 08:18:46;;;;;;;8.10;3.20;;;22.30;61.80;;;;;;5041647;28;20479;-51
2021/03/30 08:21:15;;;;;;;3.20;2.10;;;21.50;64.30;;;;;;5041452;28;20528;-51
2021/03/30 08:24:10;;;;;;;3.90;2.20;;;21.30;65.80;;;;;;5041611;28;21022;-51
2021/03/30 08:26:40;;;;;;;6.10;2.53;;;21.70;63.90;;;;;;5048844;28;20464;-50
2021/03/30 08:29:10;;;;;;;5.23;2.30;;;21.70;59.70;;;;;;5042835;28;20487;-52
2021/03/30 08:31:39;;;;;;;4.60;2.43;;;21.90;63.80;;;;;;5059163;22;20719;-47
2021/03/30 08:34:07;;;;;;;6.67;2.23;;;21.70;63.60;;;;;;5035059;28;20495;-47
2021/03/30 08:36:45;;;;;;;4.70;2.30;;;21.10;68.50;;;;;;5031979;28;21010;-47
2021/03/30 08:39:31;;;;;;;5.33;2.83;;;20.90;65.50;;;;;;5033604;28;20456;-47
2021/03/30 08:42:09;;;;;;;10.30;2.73;;;21.50;64.40;;;;;;5017717;28;20488;-46
2021/03/30 08:44:43;;;;;;;7.70;2.77;;;21.50;62.30;;;;;;5012111;28;20849;-46
2021/03/30 08:47:25;;;;;;;3.13;2.17;;;21.80;63.00;;;;;;5022983;28;20950;-47
2021/03/30 08:49:51;;;;;;;5.00;2.10;;;21.50;61.90;;;;;;5028026;28;20480;-47
2021/03/30 08:52:20;;;;;;;6.70;2.60;;;21.70;63.40;;;;;;5016521;28;20492;-48
2021/03/30 08:54:54;;;;;;;4.53;1.77;;;20.80;65.10;;;;;;5028876;28;20468;-47
2021/03/30 08:57:22;;;;;;;5.07;1.90;;;20.70;65.20;;;;;;5029416;28;20491;-48
2021/03/30 08:59:49;;;;;;;5.27;2.20;;;21.20;60.10;;;;;;5030386;28;20468;-47
2021/03/30 09:02:23;;;;;;;9.20;2.63;;;21.80;64.80;;;;;;5015026;28;20492;-47
2021/03/30 09:04:50;;;;;;;4.53;2.30;;;22.10;60.50;;;;;;5008933;28;20461;-47
2021/03/30 09:07:17;;;;;;;8.27;2.63;;;22.40;63.90;;;;;;5027838;28;20467;-48
2021/03/30 09:09:45;;;;;;;4.13;2.60;;;21.80;62.20;;;;;;5018223;28;20619;-47
2021/03/30 09:12:21;;;;;;;3.07;2.10;;;21.40;60.00;;;;;;5011569;28;20580;-47
2021/03/30 09:14:58;;;;;;;11.53;2.17;;;22.30;62.50;;;;;;5015308;28;20474;-47
2021/03/30 09:17:25;;;;;;;7.70;2.20;;;22.50;62.70;;;;;;5011057;28;20472;-48
2021/03/30 09:19:52;;;;;;;5.73;2.20;;;23.10;62.20;;;;;;4996710;28;21821;-47
2021/03/30 09:22:23;;;;;;;3.40;2.20;;;23.40;60.20;;;;;;5008752;28;20505;-47
2021/03/30 09:25:08;;;;;;;5.17;2.20;;;23.20;61.40;;;;;;5013040;28;20518;-47
2021/03/30 09:27:37;;;;;;;9.60;6.80;;;23.70;56.60;;;;;;5015719;28;20646;-47
2021/03/30 09:30:06;;;;;;;9.83;7.67;;;21.70;71.20;;;;;;5013052;28;20853;-47
2021/03/30 09:32:34;;;;;;;8.53;6.47;;;19.80;78.20;;;;;;5010469;28;20453;-47
2021/03/30 09:35:06;;;;;;;9.83;6.40;;;19.60;78.20;;;;;;5009490;28;20476;-47
2021/03/30 09:37:34;;;;;;;7.97;6.97;;;20.00;80.00;;;;;;5014470;28;22047;-47
2021/03/30 09:40:06;;;;;;;13.53;7.50;;;19.60;82.00;;;;;;5015385;28;20515;-47
2021/03/30 09:42:33;;;;;;;11.97;7.10;;;19.90;80.20;;;;;;5014121;28;20465;-47
2021/03/30 09:45:00;;;;;;;9.70;6.67;;;20.40;80.10;;;;;;5015855;28;20474;-47
2021/03/30 09:47:29;;;;;;;8.60;7.23;;;21.50;74.40;;;;;;5013564;28;20471;-47
2021/03/30 09:49:56;;;;;;;13.03;6.80;;;21.90;72.80;;;;;;5015163;28;20457;-46
2021/03/30 09:52:23;;;;;;;11.70;7.40;;;22.20;72.30;;;;;;5014632;28;20484;-47
2021/03/30 09:54:50;;;;;;;9.03;6.43;;;22.00;72.70;;;;;;5014011;28;20901;-47
2021/03/30 09:57:26;;;;;;;8.83;6.50;;;22.00;74.00;;;;;;5014883;28;20523;-47
2021/03/30 09:59:53;;;;;;;7.83;6.27;;;22.50;69.70;;;;;;5007563;28;20466;-47
2021/03/30 10:02:23;;;;;;;9.70;6.67;;;22.30;70.50;;;;;;5013808;28;20572;-47
2021/03/30 10:04:53;;;;;;;10.97;6.70;;;22.30;71.70;;;;;;5017829;28;20473;-47
2021/03/30 10:07:21;;;;;;;8.70;6.90;;;22.20;73.40;;;;;;5010828;28;21260;-48
2021/03/30 10:10:02;;;;;;;9.30;6.47;;;22.00;72.10;;;;;;5016441;28;20484;-47
2021/03/30 10:12:31;;;;;;;9.20;7.17;;;21.90;72.30;;;;;;5016183;28;20480;-47
2021/03/30 10:14:58;;;;;;;6.93;5.93;;;21.80;68.20;;;;;;5015749;28;20489;-47
2021/03/30 10:17:27;;;;;;;9.77;6.90;;;21.60;71.10;;;;;;5013954;28;20555;-46
2021/03/30 10:19:55;;;;;;;12.33;6.00;;;21.30;72.40;;;;;;5015585;28;20889;-47
2021/03/30 10:22:26;;;;;;;7.30;6.03;;;21.50;69.60;;;;;;5019094;28;20507;-47
2021/03/30 10:25:14;;;;;;;9.03;7.20;;;21.70;68.60;;;;;;5015824;28;20456;-47
2021/03/30 10:27:48;;;;;;;7.73;5.80;;;21.90;69.60;;;;;;5018628;28;20464;-47
2021/03/30 10:30:16;;;;;;;8.27;6.40;;;22.60;66.60;;;;;;5016532;28;20468;-47
2021/03/30 10:32:52;;;;;;;10.63;6.73;;;23.00;66.90;;;;;;5011988;28;20532;-47
2021/03/30 10:35:19;;;;;;;9.63;5.90;;;22.20;69.20;;;;;;5013482;28;20531;-46
2021/03/30 10:37:46;;;;;;;7.97;6.40;;;21.10;73.40;;;;;;5017081;28;20461;-47
2021/03/30 10:40:13;;;;;;;7.60;6.00;;;21.40;71.00;;;;;;5021794;28;20468;-46
2021/03/30 10:42:40;;;;;;;8.40;6.40;;;21.10;69.50;;;;;;5013638;28;21956;-46
2021/03/30 10:45:08;;;;;;;7.83;5.87;;;21.40;72.50;;;;;;5017325;28;20461;-47
2021/03/30 10:47:36;;;;;;;6.87;6.17;;;20.80;74.40;;;;;;5016379;28;20472;-46
2021/03/30 10:50:07;;;;;;;8.40;7.03;;;20.80;76.10;;;;;;5013839;28;20465;-46
2021/03/30 10:52:35;;;;;;;9.27;7.27;;;20.40;76.70;;;;;;5012499;28;20454;-47
2021/03/30 10:55:03;;;;;;;10.07;7.83;;;20.00;77.10;;;;;;5014097;28;20460;-47
2021/03/30 10:57:33;;;;;;;8.77;6.60;;;19.40;76.70;;;;;;5012497;28;20450;-47
2021/03/30 11:00:01;;;;;;;16.23;9.47;;;19.60;77.40;;;;;;5019351;28;20461;-46
2021/03/30 11:02:28;;;;;;;10.43;8.03;;;19.60;79.40;;;;;;5013596;28;20493;-46
2021/03/30 11:04:54;;;;;;;13.57;7.70;;;19.20;80.80;;;;;;5012229;28;20449;-47
2021/03/30 11:07:21;;;;;;;10.87;7.70;;;18.80;79.60;;;;;;5011901;28;20450;-47
2021/03/30 11:09:48;;;;;;;12.27;7.80;;;18.90;77.80;;;;;;5012272;28;20488;-47
2021/03/30 11:12:15;;;;;;;15.57;9.60;;;18.70;79.70;;;;;;5011984;28;20858;-46
2021/03/30 11:14:41;;;;;;;12.00;8.00;;;18.60;79.10;;;;;;5010595;28;20453;-46
2021/03/30 11:17:08;;;;;;;10.37;7.53;;;18.20;78.80;;;;;;5012251;28;20450;-47
2021/03/30 11:19:37;;;;;;;8.53;7.27;;;17.90;81.60;;;;;;5012342;28;20438;-46
2021/03/30 11:22:04;;;;;;;9.53;6.90;;;18.30;79.40;;;;;;5012271;28;20469;-47
2021/03/30 11:24:43;;;;;;;11.00;7.07;;;18.30;79.70;;;;;;5012305;28;20485;-47
2021/03/30 11:27:09;;;;;;;8.43;6.60;;;18.50;78.40;;;;;;5011877;28;20450;-47
2021/03/30 11:29:42;;;;;;;13.77;7.67;;;18.60;76.40;;;;;;5011716;28;20488;-47
2021/03/30 11:32:32;;;;;;;8.47;6.20;;;18.40;80.00;;;;;;5011543;28;21212;-47
2021/03/30 11:35:02;;;;;;;12.50;5.93;;;18.50;78.80;;;;;;5011680;28;20449;-47
2021/03/30 11:37:43;;;;;;;9.73;6.20;;;18.90;79.30;;;;;;5030295;28;20448;-47
2021/03/30 11:40:13;;;;;;;12.00;5.17;;;19.30;73.00;;;;;;5029251;28;20444;-47
2021/03/30 11:42:39;;;;;;;8.53;5.23;;;19.00;77.30;;;;;;5015855;28;20453;-47
2021/03/30 11:45:07;;;;;;;8.90;5.40;;;19.30;70.90;;;;;;5011429;28;20445;-47
2021/03/30 11:47:34;;;;;;;6.93;4.80;;;19.60;70.60;;;;;;5011533;28;20442;-47
2021/03/30 11:50:00;;;;;;;7.87;5.43;;;19.50;74.60;;;;;;5011205;28;20488;-47
2021/03/30 11:52:27;;;;;;;12.40;5.23;;;19.40;71.90;;;;;;5011396;28;20473;-47
2021/03/30 11:54:53;;;;;;;7.87;5.13;;;19.50;78.60;;;;;;5013215;28;20468;-47
2021/03/30 11:57:21;;;;;;;8.30;5.40;;;19.70;68.60;;;;;;5011384;28;20441;-47
2021/03/30 11:59:47;;;;;;;9.30;5.17;;;19.80;69.70;;;;;;5011054;28;20795;-47
2021/03/30 12:02:14;;;;;;;9.07;5.20;;;19.60;70.40;;;;;;5011319;28;20466;-47
2021/03/30 12:04:40;;;;;;;12.00;7.13;;;19.60;72.90;;;;;;5011647;28;20441;-47
2021/03/30 12:07:07;;;;;;;9.60;7.43;;;19.80;69.80;;;;;;5011414;28;20477;-48
2021/03/30 12:09:36;;;;;;;8.40;6.87;;;20.00;70.20;;;;;;5010893;28;21033;-47
2021/03/30 12:12:03;;;;;;;7.07;5.63;;;20.20;69.00;;;;;;5011235;28;20558;-47
2021/03/30 12:14:34;;;;;;;14.47;7.17;;;20.20;68.60;;;;;;5011345;28;20482;-47
2021/03/30 12:17:00;;;;;;;9.30;5.40;;;20.10;68.70;;;;;;5007730;28;20448;-47
2021/03/30 12:19:28;;;;;;;8.07;5.50;;;20.10;69.50;;;;;;5011008;28;20454;-47
2021/03/30 12:21:54;;;;;;;9.50;6.10;;;20.20;71.20;;;;;;5010993;28;20472;-47
2021/03/30 12:24:21;;;;;;;6.23;4.63;;;20.10;69.40;;;;;;5011207;28;20449;-47
2021/03/30 12:26:47;;;;;;;8.43;5.17;;;19.90;76.10;;;;;;5010634;28;20491;-47
2021/03/30 12:29:14;;;;;;;9.23;4.70;;;19.70;71.80;;;;;;5010618;28;20910;-47
2021/03/30 12:31:42;;;;;;;9.73;4.50;;;19.70;75.10;;;;;;5011036;28;20492;-47
2021/03/30 12:34:08;;;;;;;8.00;5.00;;;19.50;77.30;;;;;;5011259;28;20463;-47
2021/03/30 12:36:35;;;;;;;9.20;4.97;;;19.70;71.80;;;;;;5011213;28;20959;-48
2021/03/30 12:39:02;;;;;;;9.47;4.53;;;19.90;78.20;;;;;;5011502;28;20453;-47
2021/03/30 12:41:30;;;;;;;7.83;5.70;;;19.90;75.20;;;;;;5010868;28;20469;-47
2021/03/30 12:43:56;;;;;;;6.90;5.43;;;20.20;72.10;;;;;;5010942;28;20450;-47
2021/03/30 12:46:23;;;;;;;9.00;5.40;;;20.30;75.90;;;;;;5010733;28;20473;-47
2021/03/30 12:48:50;;;;;;;8.10;6.17;;;20.20;74.90;;;;;;5011094;28;20481;-47
2021/03/30 12:51:17;;;;;;;11.03;6.53;;;20.30;76.90;;;;;;5010831;28;21121;-47
2021/03/30 12:53:43;;;;;;;9.73;5.97;;;20.00;78.00;;;;;;5011348;28;20453;-47
2021/03/30 12:56:10;;;;;;;11.03;7.00;;;20.10;79.50;;;;;;5011004;28;20504;-47
2021/03/30 12:58:37;;;;;;;11.27;6.83;;;20.30;78.00;;;;;;5010854;28;20831;-47
2021/03/30 13:01:04;;;;;;;8.80;6.53;;;20.30;78.00;;;;;;5009993;28;20481;-47